createdAt,value
2018-09-26T00:02:04.994Z,4.50
2018-09-26T00:04:34.785Z,4.60
2018-09-26T00:07:03.120Z,4.50
2018-09-26T00:09:31.595Z,4.63
2018-09-26T00:12:00.229Z,4.27
2018-09-26T00:14:28.456Z,4.57
2018-09-26T00:16:57.228Z,3.63
2018-09-26T00:19:25.943Z,4.60
2018-09-26T00:21:54.615Z,3.97
2018-09-26T00:24:23.069Z,4.65
2018-09-26T00:26:59.104Z,4.40
2018-09-26T00:29:30.116Z,3.63
2018-09-26T00:31:58.590Z,4.20
2018-09-26T00:34:26.944Z,3.10
2018-09-26T00:36:55.609Z,3.50
2018-09-26T00:39:30.585Z,3.47
2018-09-26T00:41:59.271Z,4.70
2018-09-26T00:44:27.781Z,4.33
2018-09-26T00:46:55.910Z,4.63
2018-09-26T00:49:24.188Z,4.62
2018-09-26T00:51:52.634Z,4.53
2018-09-26T00:54:21.944Z,4.33
2018-09-26T00:56:50.500Z,4.27
2018-09-26T00:59:18.917Z,3.92
2018-09-26T01:01:47.381Z,4.20
2018-09-26T01:04:16.308Z,3.70
2018-09-26T01:06:44.768Z,4.10
2018-09-26T01:09:13.593Z,3.60
2018-09-26T01:11:42.356Z,3.70
2018-09-26T01:14:10.772Z,3.45
2018-09-26T01:16:39.007Z,4.00
2018-09-26T01:19:08.580Z,3.55
2018-09-26T01:21:37.356Z,3.40
2018-09-26T01:24:05.493Z,3.37
2018-09-26T01:26:34.289Z,2.80
2018-09-26T01:29:02.493Z,3.30
2018-09-26T01:31:31.571Z,3.60
2018-09-26T01:34:00.216Z,3.10
2018-09-26T01:36:28.677Z,3.70
2018-09-26T01:38:57.368Z,3.30
2018-09-26T01:41:25.529Z,3.80
2018-09-26T01:43:53.981Z,3.10
2018-09-26T01:46:22.609Z,2.90
2018-09-26T01:48:51.023Z,3.17
2018-09-26T01:51:20.025Z,3.17
2018-09-26T01:53:48.727Z,2.67
2018-09-26T01:56:17.317Z,3.30
2018-09-26T01:58:45.443Z,3.13
2018-09-26T02:01:14.493Z,2.60
2018-09-26T02:03:42.621Z,2.90
2018-09-26T02:06:11.052Z,3.43
2018-09-26T02:08:39.180Z,2.80
2018-09-26T02:11:08.454Z,2.50
2018-09-26T02:13:36.908Z,2.50
2018-09-26T02:16:05.248Z,2.47
2018-09-26T02:18:33.367Z,2.63
2018-09-26T02:21:01.503Z,2.10
2018-09-26T02:23:30.503Z,2.70
2018-09-26T02:25:59.121Z,2.20
2018-09-26T02:28:27.580Z,2.20
2018-09-26T02:30:55.733Z,2.50
2018-09-26T02:33:24.634Z,2.30
2018-09-26T02:35:53.336Z,2.20
2018-09-26T02:38:21.989Z,2.27
2018-09-26T02:40:50.258Z,2.70
2018-09-26T02:43:18.547Z,2.70
2018-09-26T02:45:47.030Z,1.83
2018-09-26T02:49:18.343Z,2.20
2018-09-26T02:51:46.509Z,2.30
2018-09-26T02:54:15.181Z,2.55
2018-09-26T02:56:43.554Z,2.47
2018-09-26T02:59:12.248Z,2.20
2018-09-26T03:01:40.411Z,2.80
2018-09-26T03:04:08.661Z,2.00
2018-09-26T03:06:37.293Z,2.40
2018-09-26T03:09:06.516Z,2.10
2018-09-26T03:11:35.434Z,2.47
2018-09-26T03:14:03.801Z,2.50
2018-09-26T03:16:32.581Z,2.20
2018-09-26T03:19:01.129Z,2.50
2018-09-26T03:21:29.640Z,2.73
2018-09-26T03:23:58.340Z,2.73
2018-09-26T03:26:26.865Z,2.30
2018-09-26T03:28:55.265Z,2.57
2018-09-26T03:31:24.200Z,3.00
2018-09-26T03:33:52.428Z,2.73
2018-09-26T03:36:21.207Z,2.53
2018-09-26T03:38:49.372Z,2.20
2018-09-26T03:41:17.708Z,2.30
2018-09-26T03:43:46.124Z,2.25
2018-09-26T03:46:14.477Z,2.60
2018-09-26T03:48:42.969Z,2.43
2018-09-26T03:51:11.410Z,2.20
2018-09-26T03:53:39.884Z,2.57
2018-09-26T03:56:09.052Z,2.60
2018-09-26T03:58:37.390Z,2.43
2018-09-26T04:01:05.865Z,3.73
2018-09-26T04:03:34.620Z,2.40
2018-09-26T04:06:02.758Z,2.13
2018-09-26T04:08:31.209Z,2.60
2018-09-26T04:10:59.356Z,2.70
2018-09-26T04:13:27.761Z,2.50
2018-09-26T04:15:56.468Z,2.67
2018-09-26T04:18:26.188Z,3.00
2018-09-26T04:20:55.449Z,2.50
2018-09-26T04:23:24.414Z,2.60
2018-09-26T04:25:52.764Z,2.80
2018-09-26T04:28:21.828Z,2.20
2018-09-26T04:30:50.344Z,2.87
2018-09-26T04:33:18.848Z,2.37
2018-09-26T04:35:47.308Z,2.08
2018-09-26T04:38:15.649Z,2.53
2018-09-26T04:40:44.537Z,2.37
2018-09-26T04:43:13.040Z,2.80
2018-09-26T04:45:41.529Z,2.10
2018-09-26T04:48:09.820Z,2.23
2018-09-26T04:50:37.991Z,2.37
2018-09-26T04:53:06.701Z,2.20
2018-09-26T04:55:35.171Z,2.50
2018-09-26T04:58:04.292Z,2.20
2018-09-26T05:00:32.528Z,3.00
2018-09-26T05:03:01.012Z,2.53
2018-09-26T05:05:29.804Z,2.63
2018-09-26T05:07:59.200Z,2.37
2018-09-26T05:10:27.885Z,2.10
2018-09-26T05:12:56.374Z,2.50
2018-09-26T05:15:24.768Z,2.33
2018-09-26T05:17:52.935Z,2.50
2018-09-26T05:20:21.685Z,2.50
2018-09-26T05:22:49.887Z,2.13
2018-09-26T05:25:18.144Z,2.33
2018-09-26T05:27:46.959Z,2.63
2018-09-26T05:30:15.932Z,2.87
2018-09-26T05:32:44.711Z,2.70
2018-09-26T05:35:13.161Z,3.30
2018-09-26T05:37:41.925Z,2.30
2018-09-26T05:40:10.345Z,2.23
2018-09-26T05:42:38.597Z,2.30
2018-09-26T05:45:06.740Z,2.60
2018-09-26T05:47:35.209Z,2.03
2018-09-26T05:50:03.566Z,2.27
2018-09-26T05:52:32.232Z,2.37
2018-09-26T05:55:01.064Z,2.20
2018-09-26T05:57:29.220Z,2.10
2018-09-26T05:59:57.704Z,2.40
2018-09-26T06:02:26.504Z,2.87
2018-09-26T06:04:55.262Z,2.20
2018-09-26T06:07:24.015Z,2.00
2018-09-26T06:09:52.481Z,1.70
2018-09-26T06:12:21.169Z,2.27
2018-09-26T06:14:49.589Z,2.12
2018-09-26T06:17:18.205Z,2.45
2018-09-26T06:19:46.679Z,2.10
2018-09-26T06:22:14.813Z,2.00
2018-09-26T06:24:43.347Z,1.83
2018-09-26T06:27:11.889Z,2.20
2018-09-26T06:29:40.092Z,2.90
2018-09-26T06:32:09.076Z,2.10
2018-09-26T06:34:37.773Z,1.73
2018-09-26T06:37:06.176Z,2.03
2018-09-26T06:39:34.333Z,2.00
2018-09-26T06:42:03.104Z,2.23
2018-09-26T06:44:31.630Z,1.70
2018-09-26T06:47:00.125Z,1.90
2018-09-26T06:49:28.692Z,1.92
2018-09-26T06:51:57.082Z,1.83
2018-09-26T06:54:25.573Z,2.10
2018-09-26T06:56:54.104Z,1.87
2018-09-26T06:59:22.601Z,1.90
2018-09-26T07:01:50.724Z,1.80
2018-09-26T07:04:18.961Z,1.87
2018-09-26T07:06:47.122Z,2.03
2018-09-26T07:09:15.595Z,1.60
2018-09-26T07:11:43.933Z,2.13
2018-09-26T07:14:12.074Z,1.97
2018-09-26T07:16:40.577Z,2.30
2018-09-26T07:19:09.581Z,1.70
2018-09-26T07:21:37.919Z,2.10
2018-09-26T07:24:06.696Z,1.83
2018-09-26T07:26:35.360Z,1.70
2018-09-26T07:29:04.041Z,1.90
2018-09-26T07:31:32.563Z,2.03
2018-09-26T07:34:01.051Z,1.90
2018-09-26T07:36:29.224Z,2.20
2018-09-26T07:38:57.657Z,1.90
2018-09-26T07:41:26.085Z,2.85
2018-09-26T07:43:54.552Z,3.40
2018-09-26T07:46:23.166Z,6.10
2018-09-26T07:48:53.384Z,8.40
2018-09-26T07:51:22.201Z,8.95
2018-09-26T07:53:51.477Z,3.62
2018-09-26T07:56:19.863Z,2.37
2018-09-26T07:58:48.205Z,1.40
2018-09-26T08:01:16.658Z,1.40
2018-09-26T08:03:45.377Z,1.40
2018-09-26T08:06:14.137Z,1.35
2018-09-26T08:08:42.276Z,1.70
2018-09-26T08:11:11.030Z,1.63
2018-09-26T08:13:39.703Z,2.03
2018-09-26T08:16:09.756Z,1.90
2018-09-26T08:18:38.053Z,2.00
2018-09-26T08:21:06.873Z,2.53
2018-09-26T08:23:35.040Z,2.17
2018-09-26T08:26:03.161Z,1.90
2018-09-26T08:28:31.338Z,1.93
2018-09-26T08:31:00.013Z,2.00
2018-09-26T08:33:28.316Z,2.50
2018-09-26T08:35:57.041Z,1.70
2018-09-26T08:38:25.224Z,1.93
2018-09-26T08:40:53.645Z,1.70
2018-09-26T08:43:22.884Z,2.02
2018-09-26T08:45:51.566Z,1.30
2018-09-26T08:48:20.181Z,1.50
2018-09-26T08:50:48.365Z,1.80
2018-09-26T08:53:16.841Z,2.07
2018-09-26T08:55:45.309Z,1.90
2018-09-26T08:58:13.457Z,2.52
2018-09-26T09:00:41.633Z,2.63
2018-09-26T09:03:10.436Z,1.93
2018-09-26T09:05:39.661Z,1.80
2018-09-26T09:08:09.779Z,2.08
2018-09-26T09:10:38.576Z,2.10
2018-09-26T09:13:07.355Z,1.97
2018-09-26T09:27:43.626Z,2.50
2018-09-26T09:30:11.932Z,2.53
2018-09-26T09:32:40.076Z,2.70
2018-09-26T09:35:08.515Z,2.55
2018-09-26T09:37:36.860Z,2.20
2018-09-26T09:40:05.871Z,2.33
2018-09-26T09:42:34.803Z,2.10
2018-09-26T09:45:03.453Z,2.43
2018-09-26T09:47:31.818Z,2.03
2018-09-26T09:50:00.322Z,2.27
2018-09-26T09:52:28.673Z,2.10
2018-09-26T09:54:57.175Z,2.37
2018-09-26T09:57:25.659Z,2.50
2018-09-26T09:59:54.136Z,2.63
2018-09-26T10:02:22.649Z,2.73
2018-09-26T10:04:53.200Z,2.80
2018-09-26T10:07:21.972Z,3.00
2018-09-26T10:09:50.416Z,3.10
2018-09-26T10:12:18.980Z,2.77
2018-09-26T10:14:47.100Z,2.17
2018-09-26T10:17:16.276Z,2.65
2018-09-26T10:19:46.012Z,3.40
2018-09-26T10:22:15.856Z,2.50
2018-09-26T10:24:44.220Z,3.17
2018-09-26T10:27:12.665Z,2.77
2018-09-26T10:29:41.408Z,2.67
2018-09-26T10:32:10.187Z,2.70
2018-09-26T10:34:39.065Z,2.97
2018-09-26T10:37:07.445Z,2.50
2018-09-26T10:39:35.999Z,2.57
2018-09-26T10:42:04.735Z,2.30
2018-09-26T10:44:33.745Z,2.27
2018-09-26T10:47:02.212Z,3.17
2018-09-26T10:49:30.632Z,2.90
2018-09-26T10:51:59.293Z,2.90
2018-09-26T10:54:27.736Z,3.07
2018-09-26T10:56:56.146Z,3.00
2018-09-26T10:59:24.659Z,2.70
2018-09-26T11:01:53.515Z,2.80
2018-09-26T11:04:22.122Z,2.67
2018-09-26T11:06:52.099Z,3.05
2018-09-26T11:09:20.829Z,3.00
2018-09-26T11:11:49.008Z,2.97
2018-09-26T11:14:17.545Z,2.97
2018-09-26T11:16:45.952Z,2.37
2018-09-26T11:19:14.235Z,2.47
2018-09-26T11:21:42.695Z,2.20
2018-09-26T11:24:10.851Z,2.80
2018-09-26T11:26:39.277Z,1.87
2018-09-26T11:29:07.821Z,2.10
2018-09-26T11:31:35.948Z,2.27
2018-09-26T11:34:04.478Z,2.17
2018-09-26T11:36:32.805Z,2.37
2018-09-26T11:39:01.296Z,2.30
2018-09-26T11:41:29.644Z,2.50
2018-09-26T11:43:58.667Z,2.20
2018-09-26T11:46:27.360Z,2.40
2018-09-26T11:48:56.164Z,2.60
2018-09-26T11:51:24.280Z,2.30
2018-09-26T11:53:52.771Z,2.43
2018-09-26T11:56:21.469Z,2.77
2018-09-26T11:58:50.340Z,2.47
2018-09-26T12:01:19.422Z,2.30
2018-09-26T12:03:47.872Z,2.35
2018-09-26T12:06:16.384Z,2.70
2018-09-26T12:08:45.248Z,2.58
2018-09-26T12:11:13.728Z,2.33
2018-09-26T12:13:42.156Z,2.53
2018-09-26T12:16:10.555Z,2.00
2018-09-26T12:18:39.260Z,2.07
2018-09-26T12:21:08.032Z,2.37
2018-09-26T12:23:36.507Z,2.30
2018-09-26T12:26:04.967Z,2.40
2018-09-26T12:28:33.600Z,2.17
2018-09-26T12:31:01.985Z,1.97
2018-09-26T12:33:30.148Z,2.13
2018-09-26T12:35:58.260Z,2.40
2018-09-26T12:38:26.884Z,2.50
2018-09-26T12:40:55.348Z,3.03
2018-09-26T12:43:23.990Z,2.30
2018-09-26T12:45:52.360Z,2.17
2018-09-26T12:48:20.816Z,2.00
2018-09-26T12:50:49.484Z,2.50
2018-09-26T12:53:18.230Z,1.90
2018-09-26T12:55:46.896Z,2.53
2018-09-26T12:58:15.781Z,2.40
2018-09-26T13:00:44.253Z,2.33
2018-09-26T13:03:12.442Z,1.93
2018-09-26T13:05:40.760Z,2.10
2018-09-26T13:08:09.556Z,2.00
2018-09-26T13:11:01.148Z,1.97
2018-09-26T13:13:29.627Z,2.47
2018-09-26T13:15:58.462Z,2.12
2018-09-26T13:18:26.947Z,2.00
2018-09-26T13:20:55.425Z,3.13
2018-09-26T13:23:24.080Z,1.97
2018-09-26T13:25:53.808Z,1.77
2018-09-26T13:28:22.588Z,1.80
2018-09-26T13:30:51.500Z,1.93
2018-09-26T13:33:20.452Z,1.83
2018-09-26T13:35:48.852Z,1.83
2018-09-26T13:38:17.220Z,1.97
2018-09-26T13:40:45.820Z,2.20
2018-09-26T13:43:14.216Z,2.50
2018-09-26T13:45:42.930Z,1.67
2018-09-26T13:48:11.543Z,1.73
2018-09-26T13:50:40.445Z,1.87
2018-09-26T13:53:08.558Z,1.60
2018-09-26T13:55:36.999Z,2.10
2018-09-26T13:58:05.954Z,2.50
2018-09-26T14:00:34.584Z,2.17
2018-09-26T14:03:03.024Z,2.37
2018-09-26T14:05:31.378Z,1.90
2018-09-26T14:07:59.819Z,2.13
2018-09-26T14:10:28.303Z,2.10
2018-09-26T14:12:56.662Z,2.00
2018-09-26T14:15:25.232Z,1.87
2018-09-26T14:17:53.637Z,2.10
2018-09-26T14:20:38.303Z,2.00
2018-09-26T14:23:06.820Z,2.20
2018-09-26T14:25:35.838Z,2.30
2018-09-26T14:28:04.707Z,2.00
2018-09-26T14:30:33.551Z,3.40
2018-09-26T14:33:02.171Z,2.17
2018-09-26T14:35:30.640Z,2.43
2018-09-26T14:37:58.908Z,3.30
2018-09-26T14:40:27.487Z,2.03
2018-09-26T14:42:56.040Z,1.80
2018-09-26T14:45:24.490Z,2.30
2018-09-26T14:47:52.884Z,2.20
2018-09-26T14:50:21.872Z,2.27
2018-09-26T14:52:50.522Z,2.30
2018-09-26T14:55:19.028Z,2.20
2018-09-26T14:57:47.492Z,2.47
2018-09-26T15:00:15.807Z,2.43
2018-09-26T15:02:44.504Z,2.15
2018-09-26T15:05:12.779Z,2.17
2018-09-26T15:07:41.063Z,2.80
2018-09-26T15:10:09.805Z,2.80
2018-09-26T15:12:38.528Z,2.43
2018-09-26T15:15:07.287Z,2.37
2018-09-26T15:17:35.739Z,2.20
2018-09-26T15:20:04.995Z,2.50
2018-09-26T15:22:33.597Z,2.13
2018-09-26T15:27:35.989Z,2.67
2018-09-26T15:30:04.845Z,2.80
2018-09-26T15:32:33.609Z,2.60
2018-09-26T15:35:02.168Z,2.70
2018-09-26T15:37:30.620Z,2.90
2018-09-26T15:39:58.894Z,2.33
2018-09-26T15:42:27.681Z,2.60
2018-09-26T15:44:56.335Z,2.50
2018-09-26T15:47:24.719Z,2.90
2018-09-26T15:49:53.210Z,2.47
2018-09-26T15:52:21.742Z,2.43
2018-09-26T15:54:50.183Z,2.70
2018-09-26T15:57:18.633Z,2.43
2018-09-26T15:59:47.136Z,2.37
2018-09-26T16:02:15.496Z,2.67
2018-09-26T16:04:44.076Z,2.20
2018-09-26T16:07:12.865Z,2.43
2018-09-26T16:09:41.318Z,2.67
2018-09-26T16:12:10.301Z,2.60
2018-09-26T16:14:38.951Z,2.73
2018-09-26T16:17:07.913Z,2.33
2018-09-26T16:19:36.850Z,2.83
2018-09-26T16:22:05.599Z,2.17
2018-09-26T16:24:34.256Z,2.30
2018-09-26T16:27:02.782Z,2.67
2018-09-26T16:29:31.095Z,2.30
2018-09-26T16:31:59.884Z,2.80
2018-09-26T16:34:28.332Z,2.30
2018-09-26T16:36:57.096Z,2.20
2018-09-26T16:39:25.657Z,2.70
2018-09-26T16:41:54.140Z,3.10
2018-09-26T16:44:22.546Z,3.50
2018-09-26T16:46:51.199Z,3.03
2018-09-26T16:49:19.928Z,3.10
2018-09-26T16:51:48.365Z,3.00
2018-09-26T16:54:17.097Z,6.30
2018-09-26T16:56:45.640Z,4.20
2018-09-26T16:59:14.273Z,2.80
2018-09-26T17:01:42.935Z,2.87
2018-09-26T17:04:11.393Z,3.30
2018-09-26T17:06:39.904Z,3.70
2018-09-26T17:09:11.427Z,5.97
2018-09-26T17:11:39.784Z,8.08
2018-09-26T17:14:08.062Z,3.47
2018-09-26T17:16:36.993Z,3.80
2018-09-26T17:19:05.477Z,3.27
2018-09-26T17:21:33.972Z,3.77
2018-09-26T17:24:02.556Z,3.07
2018-09-26T17:26:30.791Z,3.27
2018-09-26T17:28:59.443Z,3.50
2018-09-26T17:31:27.714Z,4.10
2018-09-26T17:33:56.377Z,3.60
2018-09-26T17:36:25.016Z,3.10
2018-09-26T17:38:53.661Z,3.70
2018-09-26T17:41:21.964Z,3.67
2018-09-26T17:43:50.090Z,3.90
2018-09-26T17:46:21.708Z,3.37
2018-09-26T17:48:52.431Z,3.57
2018-09-26T17:51:21.030Z,3.60
2018-09-26T17:53:49.484Z,3.80
2018-09-26T17:56:17.848Z,3.80
2018-09-26T17:58:45.960Z,3.53
2018-09-26T18:01:14.393Z,5.40
2018-09-26T18:03:43.053Z,4.50
2018-09-26T18:06:11.491Z,3.87
2018-09-26T18:08:40.231Z,4.00
2018-09-26T18:11:08.778Z,4.05
2018-09-26T18:13:36.936Z,4.70
2018-09-26T18:16:05.464Z,4.03
2018-09-26T18:18:33.764Z,4.43
2018-09-26T18:21:02.484Z,4.47
2018-09-26T18:23:30.894Z,3.70
2018-09-26T18:25:59.447Z,4.20
2018-09-26T18:28:27.817Z,4.40
2018-09-26T18:30:56.551Z,4.90
2018-09-26T18:33:24.821Z,4.77
2018-09-26T18:35:53.760Z,4.37
2018-09-26T18:38:21.987Z,4.77
2018-09-26T18:40:50.114Z,6.37
2018-09-26T18:43:19.070Z,4.70
2018-09-26T18:45:47.656Z,4.77
2018-09-26T18:48:16.148Z,4.80
2018-09-26T18:50:44.830Z,4.57
2018-09-26T18:53:13.501Z,4.10
2018-09-26T18:55:42.168Z,4.70
2018-09-26T18:58:10.788Z,4.70
2018-09-26T19:00:39.236Z,4.47
2018-09-26T19:03:08.099Z,5.70
2018-09-26T19:05:36.641Z,5.17
2018-09-26T19:08:05.603Z,5.45
2018-09-26T19:10:33.992Z,4.60
2018-09-26T19:13:02.569Z,4.50
2018-09-26T19:15:31.248Z,5.60
2018-09-26T19:17:59.359Z,5.60
2018-09-26T19:20:28.052Z,5.70
2018-09-26T19:22:56.622Z,5.10
2018-09-26T19:25:25.316Z,5.70
2018-09-26T19:27:53.779Z,5.30
2018-09-26T19:30:22.429Z,5.70
2018-09-26T19:32:51.084Z,6.67
2018-09-26T19:35:19.691Z,6.93
2018-09-26T19:37:48.241Z,5.77
2018-09-26T19:40:16.363Z,5.30
2018-09-26T19:42:44.468Z,5.80
2018-09-26T19:45:13.542Z,5.00
2018-09-26T19:47:41.992Z,5.70
2018-09-26T19:50:10.499Z,6.03
2018-09-26T19:52:38.600Z,5.30
2018-09-26T19:55:07.024Z,5.92
2018-09-26T19:57:35.152Z,5.70
2018-09-26T20:00:03.732Z,5.60
2018-09-26T20:02:32.453Z,5.90
2018-09-26T20:05:00.576Z,4.80
2018-09-26T20:07:29.352Z,5.12
2018-09-26T20:09:57.524Z,5.80
2018-09-26T20:12:26.305Z,5.17
2018-09-26T20:15:34.633Z,5.10
2018-09-26T20:18:07.689Z,5.40
2018-09-26T20:20:37.580Z,5.70
2018-09-26T20:23:06.350Z,5.20
2018-09-26T20:25:35.292Z,5.55
2018-09-26T20:28:03.721Z,4.60
2018-09-26T20:30:32.399Z,5.90
2018-09-26T20:33:01.171Z,5.13
2018-09-26T20:35:29.601Z,5.80
2018-09-26T20:37:58.108Z,5.28
2018-09-26T20:40:26.784Z,5.17
2018-09-26T20:42:55.179Z,6.00
2018-09-26T20:45:24.665Z,5.83
2018-09-26T20:47:53.981Z,5.53
2018-09-26T20:50:22.263Z,5.90
2018-09-26T20:52:51.448Z,5.50
2018-09-26T20:55:19.916Z,6.70
2018-09-26T20:57:48.552Z,5.90
2018-09-26T21:00:17.194Z,6.10
2018-09-26T21:02:45.601Z,6.63
2018-09-26T21:05:14.576Z,5.95
2018-09-26T21:07:42.680Z,5.80
2018-09-26T21:10:11.643Z,6.35
2018-09-26T21:12:40.252Z,5.63
2018-09-26T21:15:08.844Z,5.60
2018-09-26T21:17:37.688Z,5.80
2018-09-26T21:20:06.267Z,6.00
2018-09-26T21:22:34.716Z,6.70
2018-09-26T21:25:03.473Z,6.93
2018-09-26T21:27:31.916Z,6.73
2018-09-26T21:30:00.523Z,6.80
2018-09-26T21:32:28.979Z,6.60
2018-09-26T21:34:57.540Z,6.97
2018-09-26T21:37:25.840Z,6.90
2018-09-26T21:39:54.245Z,6.95
2018-09-26T21:42:22.687Z,6.00
2018-09-26T21:44:50.799Z,6.27
2018-09-26T21:47:19.239Z,5.90
2018-09-26T21:49:47.420Z,6.30
2018-09-26T21:52:15.868Z,6.70
2018-09-26T21:54:44.724Z,6.20
2018-09-26T21:57:13.164Z,6.30
2018-09-26T21:59:41.469Z,6.20
2018-09-26T22:02:10.348Z,6.93
2018-09-26T22:04:38.786Z,7.10
2018-09-26T22:07:06.899Z,7.20
2018-09-26T22:09:35.288Z,6.30
2018-09-26T22:12:04.064Z,7.78
2018-09-26T22:14:32.828Z,6.63
2018-09-26T22:17:01.569Z,6.80
2018-09-26T22:19:29.676Z,6.47
2018-09-26T22:21:58.141Z,6.50
2018-09-26T22:24:26.340Z,6.73
2018-09-26T22:26:55.072Z,6.73
2018-09-26T22:29:23.492Z,6.90
2018-09-26T22:31:51.944Z,7.27
2018-09-26T22:34:20.656Z,7.08
2018-09-26T22:36:49.112Z,6.60
2018-09-26T22:39:17.726Z,7.03
2018-09-26T22:41:46.368Z,6.63
2018-09-26T22:44:14.866Z,8.13
2018-09-26T22:46:43.324Z,6.97
2018-09-26T22:49:11.870Z,6.60
2018-09-26T22:51:39.993Z,6.87
2018-09-26T22:54:09.046Z,6.33
2018-09-26T22:56:37.656Z,7.58
2018-09-26T22:59:06.165Z,7.75
2018-09-26T23:01:34.459Z,7.03
2018-09-26T23:04:06.124Z,7.28
2018-09-26T23:06:37.705Z,7.13
2018-09-26T23:09:08.460Z,6.92
2018-09-26T23:11:37.031Z,7.67
2018-09-26T23:14:05.453Z,7.20
2018-09-26T23:16:33.887Z,6.40
2018-09-26T23:19:02.239Z,6.43
2018-09-26T23:21:31.104Z,7.40
2018-09-26T23:24:03.975Z,6.85
2018-09-26T23:26:32.138Z,6.90
2018-09-26T23:29:01.080Z,6.67
2018-09-26T23:31:29.520Z,6.77
2018-09-26T23:33:58.119Z,6.57
2018-09-26T23:36:26.904Z,6.97
2018-09-26T23:38:55.289Z,6.80
2018-09-26T23:41:24.001Z,7.63
2018-09-26T23:43:52.128Z,6.40
2018-09-26T23:46:20.852Z,7.10
2018-09-26T23:48:48.968Z,6.43
2018-09-26T23:51:17.407Z,8.10
2018-09-26T23:53:46.089Z,6.87
2018-09-26T23:56:14.532Z,6.50
2018-09-26T23:58:42.988Z,6.70
